الصفحة الرئيسية
METAR-TAF:

METAR-TAF

مطار :

سان ديني, ريونيون

دائرة عرض: 20-53S, خط طول: 055-31E, ارتفاع: 21 متر

مراقبة الطقس الحالي

تاريخ ووقت الإصدار 25 دقيقة قبل الساعة 18:30UTC
ريح 4 عقدة من الجنوب
درجة الحرارة 24°درجة مئوية
الرطوبة 89%
ضغط 1010 hPa
الرؤية 10 كم أو أكثر
الغيوم لا تقل 1500 م ولا وجود لمزنة ركامية السحاب الأسود

METAR: FMEE 011830Z AUTO 18004KT CAVOK 24/22 Q1010 NOSIG

زمن: 22:55 (18:55 UTC)

توقعات

تاريخ ووقت الإصدار 1ساعة و 55 دقيقة قبل الساعة 17:00UTC
التوقعات صالحة من01 الساعة 18 UTC إلى 02 الساعة 24 UTC
ريح 10 عقدة من الجنوب
الرؤية 10 كم أو أكثر
غيوم قليلة على ارتفاع 2500 قدم
أصبح
من 02 الساعة 07 UTC إلى 02 الساعة 09 UTC
ريح 12 عقدة من الغرب/الشمال الغربي
أصبح
من 02 الساعة 13 UTC إلى 02 الساعة 15 UTC
ريح 10 عقدة من الشمال الشرقي
أصبح
من 02 الساعة 17 UTC إلى 02 الساعة 19 UTC
ريح 10 عقدة من الجنوب

TAF: FMEE 011700Z 0118/0224 18010KT 9999 FEW025 BECMG 0207/0209 30012KT BECMG 0213/0215 04010KT BECMG 0217/0219 18010KT

أرصاد الطقس والتوقعات من أكثر من 4000 مطار (تقارير الطقس للمطار METAR والتنبؤ بالطقس بالمطارTAF).

المحطات المتاحة هي النقط الصفراء والحمراء على الخريطة.

حرك المؤشر فوق النقطة لمعرفة اسم المحطة.

ثم انقر لمعرفة أرصاد وتوقعات الطقس.

لتغيير الخارطة: اضغط على الأزرار الخضراء مع رمز الصليب الأسود للتكبير. على الزر الأخضر مع شرطة للتصغير، أو على الأسهم الخضراء للخرائط المجاورة.


METAR-TAF: